TFFFTGPY

Guest
Details From TFFF - Martinique/Aime Cesaire Intl
To TGPY - Grenada/Bishop International
Flight Number -
Tags generated
Created
Modified
Stats Distance 164 nm / 304 km
Max Altitude 16,200 ft / 4,938 m
Waypoints 5
Social Downloads 0
Likes 0
Share VATSIM

Download

Looking for another format? Having issues loading an existing format? Contact us
Advertisement - Login to hide

Notes

Basic altitude profile: - Ascent Rate: 2500ft/min - Ascent Speed: 250kts - Cruise Altitude: 35000ft - Cruise Speed: 420kts - Descent Rate: 1500ft/min - Descent Speed: 250kts Options: - Use NATs: yes - Use PACOTS: yes - Use low airways: yes - Use high airways: yes

Route

TFFF SV A324 GND TGPY

ID Type Via Altitude Latitude Longitude Leg Dist Tot Dist Heading (true) Name
O TFFF APT - 0 ft / 0 m 14.59103˚ -61.00317˚ - 0 nm - Martinique/Aime Cesaire Intl
SV NDB - 16,200 ft / 4,938 m 13.14064˚ -61.22617˚ 88 nm 88 nm 189° / 188° E.T. JOSHUA NDB
RESAS FIX A324 (AWY-LO) 8,100 ft / 2,469 m 12.56828˚ -61.50783˚ 38 nm 126 nm 206° / 206° -
GND VOR A324 (AWY-LO) 6,000 ft / 1,829 m 12.00128˚ -61.78544˚ 37 nm 163 nm 206° / 206° MAURICE BISHOP VOR-DME
O TGPY APT - 0 ft / 0 m 12.00425˚ -61.78619˚ 0 nm 164 nm 346° / 346° Grenada/Bishop International

Altitude Profile

Advertisement - Login to hide

Weather


0- 5 10 15 20 25 30 35+ Temperature / ° C

Clouds and Precipitation
Forecast for 2017-12-18 12:00 UTC. Updated 2 hours ago

Ground ~20,000 ft ~40,000 ft Winds

TFFF

Details ICAO TFFF (FDF)
Name Martinique/Aime Cesaire Intl
Region France (Guadeloupe, Martinique, Saint Barthélemy, Saint Martin)
Timezone America/Martinique (UTC-4.0)
Stats Elevation 16 ft / 5 m (AMSL)
Location 14.591032° -61.003173°
Runways 1
Magnetic Variation 15.058° W

METAR

TFFF 181030Z AUTO 06004KT 020V100 9999 FEW022/// SCT033/// ///CB 24/23 Q1015 TEMPO 4000 SHRA

Decode

TAF

TAF TFFF 180500Z 1806/1906 09007KT 9999 SCT025 TEMPO 1806/1821 4000 SHRA SCT015TCU

Decode

Departure Runways

ID Width Length Bearing (true) Bearing (mag) Surface Threshold Offset Overrun Length
09 148 ft / 45 m 9,852 ft / 3,003 m 79.93° 94.99° Asphalt 0 ft / 0 m 0 ft / 0 m
27 148 ft / 45 m 9,852 ft / 3,003 m 259.94° 275.00° Asphalt 820 ft / 250 m 948 ft / 289 m

TGPY

Details ICAO TGPY (GND)
Name Grenada/Bishop International
Region Grenada
Timezone America/Grenada (UTC-4.0)
Stats Elevation 41 ft / 12 m (AMSL)
Location 12.004247° -61.786192°
Runways 1
Magnetic Variation 14.800° W

METAR

TGPY 181000Z 00000KT 9999 FEW016 BKN034 24/23 Q1013 NOSIG

Decode

TAF

Not found

Destination Runways

ID Width Length Bearing (true) Bearing (mag) Surface Threshold Offset Overrun Length
10 148 ft / 45 m 9,012 ft / 2,747 m 90.26° 105.06° Asphalt 0 ft / 0 m 0 ft / 0 m
28 148 ft / 45 m 9,012 ft / 2,747 m 270.26° 285.06° Asphalt 0 ft / 0 m 0 ft / 0 m

Popular Alternatives